Time;durP1;ratioP1;P1;durP2;ratioP2;P2;SDS_P1;SDS_P2;PMS_P1;PMS_P2;Temp;Humidity;BMP_temperature;BMP_pressure;BME280_temperature;BME280_humidity;BME280_pressure;Samples;Min_cycle;Max_cycle;Signal;HPM_P1;HPM_P2
2021/09/04 12:05:41;;;;;;;5.25;2.10;;;;;;;;;;2479983;23;21783;-88
2021/09/04 12:08:10;;;;;;;5.07;1.95;;;;;;;;;;4900196;29;20064;-88
2021/09/04 12:10:44;;;;;;;5.00;2.17;;;;;;;;;;4902852;29;20052;-92
2021/09/04 12:13:34;;;;;;;6.97;2.08;;;;;;;;;;4903621;29;20099;-91
2021/09/04 12:16:02;;;;;;;4.75;2.25;;;;;;;;;;4904714;29;20035;-90
2021/09/04 12:18:31;;;;;;;3.58;2.00;;;;;;;;;;4924036;29;20034;-86
2021/09/04 12:21:36;;;;;;;;;;;;;;;;;;;;;
2021/09/04 12:43:07;;;;;;;7.53;2.15;;;;;;;;;;4902319;29;20502;-91
2021/09/04 12:45:34;;;;;;;5.82;2.42;;;;;;;;;;4883824;29;20044;-91
2021/09/04 12:48:00;;;;;;;4.03;2.20;;;;;;;;;;4883095;29;20032;-91
2021/09/04 12:50:26;;;;;;;4.63;2.47;;;;;;;;;;4883662;29;20037;-88
2021/09/04 12:53:08;;;;;;;5.10;2.33;;;;;;;;;;4885892;29;20036;-91
2021/09/04 12:55:47;;;;;;;5.18;2.50;;;;;;;;;;4883283;29;20029;-92
2021/09/04 12:58:14;;;;;;;10.98;2.38;;;;;;;;;;4882990;29;20024;-90
2021/09/04 13:00:40;;;;;;;7.78;3.05;;;;;;;;;;4883195;29;20045;-93
2021/09/04 13:03:06;;;;;;;5.57;2.30;;;;;;;;;;4885428;29;20033;-90
2021/09/04 13:05:33;;;;;;;4.22;2.03;;;;;;;;;;4900700;29;20099;-92
2021/09/04 13:07:59;;;;;;;4.68;2.40;;;;;;;;;;4883973;29;20028;-90
2021/09/04 13:10:27;;;;;;;6.93;2.33;;;;;;;;;;4883440;29;20052;-90
2021/09/04 13:12:53;;;;;;;4.75;2.65;;;;;;;;;;4882468;29;20100;-86
2021/09/04 13:15:20;;;;;;;4.47;2.33;;;;;;;;;;4899236;29;20052;-86
2021/09/04 13:17:48;;;;;;;4.65;1.92;;;;;;;;;;4882706;29;20036;-85
2021/09/04 13:20:15;;;;;;;4.20;1.92;;;;;;;;;;4882597;29;20033;-88
2021/09/04 13:22:43;;;;;;;5.72;2.67;;;;;;;;;;4887115;29;20032;-85
2021/09/04 13:25:10;;;;;;;5.20;2.33;;;;;;;;;;4882540;29;20594;-87
2021/09/04 13:27:37;;;;;;;4.43;2.00;;;;;;;;;;4882194;29;20061;-87
2021/09/04 13:30:04;;;;;;;4.22;2.30;;;;;;;;;;4898417;29;20021;-86
2021/09/04 13:32:30;;;;;;;6.10;2.30;;;;;;;;;;4882079;29;20405;-86
2021/09/04 13:34:57;;;;;;;3.58;2.03;;;;;;;;;;4882477;29;20545;-87
2021/09/04 13:37:23;;;;;;;7.40;2.17;;;;;;;;;;4882880;29;20112;-88
2021/09/04 13:39:53;;;;;;;5.05;2.35;;;;;;;;;;4888301;29;20033;-89
2021/09/04 13:42:19;;;;;;;5.53;2.38;;;;;;;;;;4886545;29;20474;-90
2021/09/04 13:44:45;;;;;;;5.18;2.42;;;;;;;;;;4886132;29;20474;-88
2021/09/04 13:47:11;;;;;;;3.90;1.98;;;;;;;;;;4886496;29;20032;-87
2021/09/04 13:49:38;;;;;;;4.82;2.25;;;;;;;;;;4886111;29;20032;-88
2021/09/04 13:52:04;;;;;;;8.50;2.33;;;;;;;;;;4886063;29;20040;-86
2021/09/04 13:54:31;;;;;;;4.30;2.28;;;;;;;;;;4886167;29;20060;-86
2021/09/04 13:56:57;;;;;;;4.25;2.03;;;;;;;;;;4886119;29;20025;-86
2021/09/04 13:59:23;;;;;;;5.38;2.22;;;;;;;;;;4886369;29;20039;-87
2021/09/04 14:01:49;;;;;;;10.07;1.77;;;;;;;;;;4885949;29;20115;-87
2021/09/04 14:04:15;;;;;;;17.95;3.70;;;;;;;;;;4885891;29;20020;-88
2021/09/04 14:06:41;;;;;;;23.65;5.80;;;;;;;;;;4887963;29;20021;-90
2021/09/04 14:09:09;;;;;;;4.88;1.98;;;;;;;;;;4887548;29;20025;-91
2021/09/04 14:11:35;;;;;;;8.95;2.92;;;;;;;;;;4888883;29;20036;-90
2021/09/04 14:14:01;;;;;;;3.28;1.67;;;;;;;;;;4886080;29;20123;-91
2021/09/04 14:16:28;;;;;;;3.38;1.92;;;;;;;;;;4886493;29;20052;-91
2021/09/04 14:18:54;;;;;;;4.35;2.08;;;;;;;;;;4886821;29;20032;-91
2021/09/04 14:21:20;;;;;;;3.67;1.80;;;;;;;;;;4885692;29;20028;-91
2021/09/04 14:23:46;;;;;;;3.70;1.80;;;;;;;;;;4885838;29;20028;-90
2021/09/04 14:26:13;;;;;;;3.95;1.83;;;;;;;;;;4907051;29;20036;-93
2021/09/04 14:28:40;;;;;;;3.25;1.50;;;;;;;;;;4887021;29;20021;-92
2021/09/04 14:31:06;;;;;;;3.83;1.58;;;;;;;;;;4887537;29;20051;-91
2021/09/04 14:33:32;;;;;;;3.75;1.92;;;;;;;;;;4887595;29;20450;-92
2021/09/04 14:35:58;;;;;;;4.03;1.88;;;;;;;;;;4886090;29;20084;-90
2021/09/04 14:38:24;;;;;;;4.15;1.95;;;;;;;;;;4886075;29;20063;-91
2021/09/04 14:40:50;;;;;;;3.97;1.88;;;;;;;;;;4885333;29;20032;-91
2021/09/04 14:43:16;;;;;;;3.70;1.77;;;;;;;;;;4885058;29;20554;-91
2021/09/04 14:45:42;;;;;;;3.55;1.73;;;;;;;;;;4885578;29;20067;-92
2021/09/04 14:48:08;;;;;;;4.30;1.90;;;;;;;;;;4885113;29;20029;-93
2021/09/04 14:50:35;;;;;;;4.82;2.25;;;;;;;;;;4885174;29;20033;-93
2021/09/04 14:53:01;;;;;;;3.70;1.70;;;;;;;;;;4885264;29;20044;-91
2021/09/04 14:55:27;;;;;;;3.90;2.28;;;;;;;;;;4885223;29;20025;-93
2021/09/04 14:57:53;;;;;;;3.38;1.70;;;;;;;;;;4884967;29;20390;-92
2021/09/04 15:00:20;;;;;;;4.63;2.28;;;;;;;;;;4886028;29;20028;-87
2021/09/04 15:02:48;;;;;;;3.20;1.80;;;;;;;;;;4885117;29;20033;-88
2021/09/04 15:05:14;;;;;;;4.03;1.73;;;;;;;;;;4885730;29;20103;-90
2021/09/04 15:07:41;;;;;;;3.63;1.85;;;;;;;;;;4885324;29;20028;-92
2021/09/04 15:10:07;;;;;;;4.10;2.10;;;;;;;;;;4885735;29;20033;-93
2021/09/04 15:12:33;;;;;;;5.78;2.28;;;;;;;;;;4884825;29;20508;-92
2021/09/04 15:15:00;;;;;;;5.82;2.20;;;;;;;;;;4884783;29;20036;-90
2021/09/04 15:17:26;;;;;;;4.97;2.25;;;;;;;;;;4885518;29;20398;-93
2021/09/04 15:19:52;;;;;;;5.13;2.20;;;;;;;;;;4885140;29;20028;-93
2021/09/04 15:22:18;;;;;;;8.18;2.33;;;;;;;;;;4884834;29;20084;-93
2021/09/04 15:24:44;;;;;;;6.18;2.80;;;;;;;;;;4884561;29;20037;-92
2021/09/04 15:27:10;;;;;;;6.18;2.70;;;;;;;;;;4884388;29;20032;-93
2021/09/04 15:29:37;;;;;;;3.90;2.17;;;;;;;;;;4885592;29;20111;-91
2021/09/04 15:32:03;;;;;;;8.02;2.70;;;;;;;;;;4885278;29;20089;-93
2021/09/04 15:34:29;;;;;;;5.55;3.05;;;;;;;;;;4884679;29;20056;-91
2021/09/04 15:36:55;;;;;;;5.10;2.83;;;;;;;;;;4884817;29;20211;-91
2021/09/04 15:39:22;;;;;;;6.65;2.65;;;;;;;;;;4885201;29;20104;-91
2021/09/04 15:41:48;;;;;;;9.68;3.03;;;;;;;;;;4884526;29;20033;-89
2021/09/04 15:44:14;;;;;;;4.47;2.67;;;;;;;;;;4884431;29;20036;-91
2021/09/04 15:46:41;;;;;;;5.55;2.78;;;;;;;;;;4886342;29;20024;-91
2021/09/04 15:49:07;;;;;;;4.55;2.50;;;;;;;;;;4884208;29;20051;-91
2021/09/04 15:51:33;;;;;;;5.50;3.05;;;;;;;;;;4886349;29;20035;-93
2021/09/04 15:53:59;;;;;;;5.90;3.70;;;;;;;;;;4886290;29;20040;-90
2021/09/04 15:56:25;;;;;;;5.43;2.75;;;;;;;;;;4884093;29;20123;-91
2021/09/04 15:58:52;;;;;;;4.43;2.75;;;;;;;;;;4888861;29;20025;-93
2021/09/04 16:01:18;;;;;;;12.65;5.97;;;;;;;;;;4888895;29;20100;-91
2021/09/04 16:03:44;;;;;;;24.90;11.35;;;;;;;;;;4883948;29;20100;-90
2021/09/04 16:06:10;;;;;;;80.43;34.15;;;;;;;;;;4917374;29;20397;-93
2021/09/04 16:08:36;;;;;;;121.82;52.42;;;;;;;;;;4916070;29;20107;-93
2021/09/04 16:11:04;;;;;;;35.40;17.40;;;;;;;;;;4915367;29;20036;-93
2021/09/04 16:13:30;;;;;;;35.22;15.65;;;;;;;;;;4916355;29;20188;-90
2021/09/04 16:15:56;;;;;;;16.15;5.95;;;;;;;;;;4915013;29;20033;-92
2021/09/04 16:18:22;;;;;;;15.13;7.82;;;;;;;;;;4883661;29;20033;-92
2021/09/04 16:20:48;;;;;;;12.32;6.35;;;;;;;;;;4884022;29;20021;-91
2021/09/04 16:23:14;;;;;;;12.85;7.65;;;;;;;;;;4884627;29;20029;-91
2021/09/04 16:25:40;;;;;;;20.60;11.68;;;;;;;;;;4884669;29;20032;-91
2021/09/04 16:28:07;;;;;;;15.27;8.07;;;;;;;;;;4915524;29;20397;-91
2021/09/04 16:30:33;;;;;;;9.55;4.72;;;;;;;;;;4886101;29;20037;-92
2021/09/04 16:32:59;;;;;;;10.07;5.22;;;;;;;;;;4884108;29;20050;-89
2021/09/04 16:35:25;;;;;;;10.25;5.18;;;;;;;;;;4883387;29;20063;-92
2021/09/04 16:37:52;;;;;;;10.18;5.35;;;;;;;;;;4883148;29;20521;-91
2021/09/04 16:40:18;;;;;;;11.20;6.15;;;;;;;;;;4883743;29;20618;-92
2021/09/04 16:42:44;;;;;;;10.35;5.97;;;;;;;;;;4884210;29;20032;-90
2021/09/04 16:45:10;;;;;;;15.82;7.68;;;;;;;;;;4885391;29;20044;-92
2021/09/04 16:47:36;;;;;;;121.10;43.85;;;;;;;;;;4884403;29;20039;-91
2021/09/04 16:50:03;;;;;;;47.47;22.23;;;;;;;;;;4916044;29;20031;-93
2021/09/04 16:52:29;;;;;;;24.25;10.18;;;;;;;;;;4915696;29;20037;-91
2021/09/04 16:54:55;;;;;;;10.32;5.93;;;;;;;;;;4916303;29;20398;-91
2021/09/04 16:57:22;;;;;;;12.23;5.50;;;;;;;;;;4886378;29;20033;-92
2021/09/04 16:59:48;;;;;;;21.27;6.03;;;;;;;;;;4884516;29;20044;-91
2021/09/04 17:02:14;;;;;;;14.70;4.30;;;;;;;;;;4884303;29;20044;-93
2021/09/04 17:04:40;;;;;;;17.95;4.47;;;;;;;;;;4892664;29;20029;-91
2021/09/04 17:07:06;;;;;;;14.07;4.65;;;;;;;;;;4889524;29;20039;-92
2021/09/04 17:09:33;;;;;;;26.77;4.90;;;;;;;;;;4884342;29;20048;-90
2021/09/04 17:11:59;;;;;;;17.02;3.65;;;;;;;;;;4883183;29;20500;-92
2021/09/04 17:14:25;;;;;;;21.85;3.70;;;;;;;;;;4883176;29;20032;-90
2021/09/04 17:16:51;;;;;;;11.05;3.97;;;;;;;;;;4900014;29;20423;-91
2021/09/04 17:19:17;;;;;;;10.23;4.93;;;;;;;;;;4883862;29;20031;-94
2021/09/04 17:21:44;;;;;;;7.85;4.55;;;;;;;;;;4882934;29;20035;-91
2021/09/04 17:24:10;;;;;;;6.80;4.53;;;;;;;;;;4882994;29;20031;-91
2021/09/04 17:26:37;;;;;;;10.63;4.95;;;;;;;;;;4882629;29;20040;-92
2021/09/04 17:29:03;;;;;;;7.38;3.97;;;;;;;;;;4882781;29;20028;-92
2021/09/04 17:31:31;;;;;;;10.27;3.97;;;;;;;;;;4883212;29;20096;-93
2021/09/04 17:33:57;;;;;;;20.58;5.53;;;;;;;;;;4883329;29;20103;-90
2021/09/04 17:36:23;;;;;;;13.00;4.97;;;;;;;;;;4882933;29;20028;-89
2021/09/04 17:38:50;;;;;;;9.50;4.47;;;;;;;;;;4882909;29;20056;-91
2021/09/04 17:41:16;;;;;;;7.68;4.35;;;;;;;;;;4888544;29;20028;-91
2021/09/04 17:43:42;;;;;;;11.88;4.47;;;;;;;;;;4882637;29;20067;-90
2021/09/04 17:46:09;;;;;;;9.75;4.97;;;;;;;;;;4882532;29;20032;-90
2021/09/04 17:48:36;;;;;;;9.45;5.47;;;;;;;;;;4882915;29;20039;-90
2021/09/04 17:51:02;;;;;;;12.80;5.85;;;;;;;;;;4882298;29;20031;-94
2021/09/04 17:53:29;;;;;;;14.85;6.10;;;;;;;;;;4891002;29;20028;-91
2021/09/04 17:55:55;;;;;;;10.10;5.68;;;;;;;;;;4882857;29;20040;-94
2021/09/04 17:58:21;;;;;;;11.30;5.68;;;;;;;;;;4882698;29;20438;-93
2021/09/04 18:00:47;;;;;;;11.15;5.72;;;;;;;;;;4884117;29;20041;-91
2021/09/04 18:03:13;;;;;;;11.88;5.55;;;;;;;;;;4887654;29;20040;-93
2021/09/04 18:05:40;;;;;;;8.77;5.47;;;;;;;;;;4883609;29;20021;-92
2021/09/04 18:08:06;;;;;;;11.70;6.13;;;;;;;;;;4882342;29;20092;-90
2021/09/04 18:10:33;;;;;;;13.82;5.50;;;;;;;;;;4882307;29;20032;-91
2021/09/04 18:12:59;;;;;;;11.88;5.82;;;;;;;;;;4882943;29;20036;-92
2021/09/04 18:15:26;;;;;;;9.75;6.07;;;;;;;;;;4887414;29;20021;-91
2021/09/04 18:17:52;;;;;;;14.50;6.55;;;;;;;;;;4884694;29;20414;-93
2021/09/04 18:20:22;;;;;;;10.27;6.28;;;;;;;;;;4883233;29;20470;-93
2021/09/04 18:22:48;;;;;;;10.00;6.05;;;;;;;;;;4882569;29;20033;-92
2021/09/04 18:25:14;;;;;;;12.00;5.80;;;;;;;;;;4886254;29;20039;-92
2021/09/04 18:27:41;;;;;;;9.45;6.03;;;;;;;;;;4885304;29;20062;-91
2021/09/04 18:30:08;;;;;;;12.30;5.65;;;;;;;;;;4886257;29;20033;-91
2021/09/04 18:32:34;;;;;;;12.68;6.25;;;;;;;;;;4900516;29;20088;-91
2021/09/04 18:35:00;;;;;;;10.40;5.82;;;;;;;;;;4903328;29;20028;-91
2021/09/04 18:40:46;;;;;;;9.20;5.82;;;;;;;;;;4902743;29;20051;-90
2021/09/04 18:43:15;;;;;;;9.43;5.50;;;;;;;;;;4889571;29;20029;-90
2021/09/04 18:45:42;;;;;;;13.88;5.68;;;;;;;;;;4891546;29;20029;-90
2021/09/04 18:48:08;;;;;;;11.00;6.35;;;;;;;;;;4884598;29;20156;-90
2021/09/04 18:50:43;;;;;;;8.40;5.50;;;;;;;;;;4892292;29;20461;-89
2021/09/04 18:53:11;;;;;;;12.43;5.70;;;;;;;;;;4885669;29;20136;-90
2021/09/04 18:55:37;;;;;;;9.68;5.63;;;;;;;;;;4885510;29;20617;-91
2021/09/04 18:58:03;;;;;;;13.15;6.35;;;;;;;;;;4885548;29;20029;-90
2021/09/04 19:00:30;;;;;;;8.43;5.45;;;;;;;;;;4886071;29;20029;-90
2021/09/04 19:02:56;;;;;;;9.55;5.85;;;;;;;;;;4885858;29;20043;-90
2021/09/04 19:05:23;;;;;;;11.73;6.25;;;;;;;;;;4885514;29;20032;-90
2021/09/04 19:07:52;;;;;;;12.57;6.40;;;;;;;;;;4885173;29;20029;-89
2021/09/04 19:10:21;;;;;;;9.60;5.60;;;;;;;;;;4887620;29;20028;-93
2021/09/04 19:12:47;;;;;;;9.45;5.95;;;;;;;;;;4888123;29;20052;-91
2021/09/04 19:15:14;;;;;;;9.75;5.75;;;;;;;;;;4885892;29;20033;-91
2021/09/04 19:17:40;;;;;;;8.32;5.25;;;;;;;;;;4903235;29;20047;-90
2021/09/04 19:20:06;;;;;;;10.75;6.15;;;;;;;;;;4885519;29;20067;-91
2021/09/04 19:22:33;;;;;;;9.45;5.88;;;;;;;;;;4886779;29;20033;-91
2021/09/04 19:25:09;;;;;;;9.43;5.80;;;;;;;;;;4885779;29;20111;-90
2021/09/04 19:27:36;;;;;;;10.50;5.65;;;;;;;;;;4885373;29;20036;-90
2021/09/04 19:30:02;;;;;;;10.43;6.00;;;;;;;;;;4885855;29;20123;-91
2021/09/04 19:32:28;;;;;;;10.10;6.20;;;;;;;;;;4888488;29;20042;-91
2021/09/04 19:34:54;;;;;;;9.23;5.20;;;;;;;;;;4885106;29;20068;-92
2021/09/04 19:37:20;;;;;;;9.55;6.05;;;;;;;;;;4885010;29;20091;-91
2021/09/04 19:39:47;;;;;;;10.93;6.38;;;;;;;;;;4884797;29;20505;-89
2021/09/04 19:42:13;;;;;;;9.43;5.70;;;;;;;;;;4886055;29;20029;-91
2021/09/04 19:44:39;;;;;;;10.98;6.10;;;;;;;;;;4888201;29;20024;-90
2021/09/04 19:47:11;;;;;;;10.15;6.60;;;;;;;;;;4885669;29;20028;-91
2021/09/04 19:49:37;;;;;;;12.15;5.90;;;;;;;;;;4884653;29;20486;-89
2021/09/04 19:52:06;;;;;;;11.95;6.47;;;;;;;;;;4884927;29;20043;-90
2021/09/04 19:54:32;;;;;;;10.38;5.95;;;;;;;;;;4884472;29;20381;-90
2021/09/04 19:56:58;;;;;;;9.60;5.80;;;;;;;;;;4884264;29;20485;-89
2021/09/04 19:59:24;;;;;;;9.52;6.63;;;;;;;;;;4884329;29;20542;-89
2021/09/04 20:01:51;;;;;;;9.35;5.55;;;;;;;;;;4884906;29;20115;-89
2021/09/04 20:04:17;;;;;;;10.10;6.22;;;;;;;;;;4885904;29;20039;-89
2021/09/04 20:06:43;;;;;;;11.23;6.03;;;;;;;;;;4901219;29;20033;-88
2021/09/04 20:09:09;;;;;;;11.45;6.07;;;;;;;;;;4884469;29;20119;-89
2021/09/04 20:11:38;;;;;;;8.38;5.70;;;;;;;;;;4885368;29;20525;-91
2021/09/04 20:14:04;;;;;;;8.68;5.78;;;;;;;;;;4885104;29;20043;-89
2021/09/04 20:16:30;;;;;;;11.48;6.18;;;;;;;;;;4885163;29;20028;-89
2021/09/04 20:18:57;;;;;;;11.00;6.30;;;;;;;;;;4886373;29;20028;-89
2021/09/04 20:21:23;;;;;;;11.10;6.53;;;;;;;;;;4884142;29;20176;-90
2021/09/04 20:23:49;;;;;;;10.70;6.25;;;;;;;;;;4883741;29;20072;-89
2021/09/04 20:26:16;;;;;;;12.63;6.32;;;;;;;;;;4885108;29;20029;-90
2021/09/04 20:28:42;;;;;;;12.65;6.57;;;;;;;;;;4889804;29;20013;-90
2021/09/04 20:31:09;;;;;;;9.20;5.95;;;;;;;;;;4883742;29;20031;-89
2021/09/04 20:33:36;;;;;;;10.65;5.53;;;;;;;;;;4883524;29;20032;-90
2021/09/04 20:36:16;;;;;;;12.27;6.32;;;;;;;;;;4883753;29;20029;-90
2021/09/04 20:38:55;;;;;;;9.88;5.78;;;;;;;;;;4883246;29;20033;-90
2021/09/04 20:41:21;;;;;;;14.13;6.72;;;;;;;;;;4865139;29;20072;-90
2021/09/04 20:43:48;;;;;;;12.35;6.38;;;;;;;;;;4865032;29;20033;-91
2021/09/04 20:46:14;;;;;;;16.33;6.72;;;;;;;;;;4864654;29;20061;-91
2021/09/04 20:48:41;;;;;;;10.63;5.53;;;;;;;;;;4865413;29;20033;-91
2021/09/04 20:51:08;;;;;;;11.98;5.75;;;;;;;;;;4868514;29;20036;-90
2021/09/04 20:53:34;;;;;;;10.45;6.07;;;;;;;;;;4865218;29;20048;-89
2021/09/04 20:56:00;;;;;;;9.50;5.50;;;;;;;;;;4865160;29;20482;-87
2021/09/04 20:58:26;;;;;;;14.18;6.75;;;;;;;;;;4865978;29;20040;-91
2021/09/04 21:00:53;;;;;;;11.00;6.72;;;;;;;;;;4865345;29;20439;-90
2021/09/04 21:03:19;;;;;;;10.23;5.38;;;;;;;;;;4865800;29;20033;-91
2021/09/04 21:05:45;;;;;;;10.77;6.22;;;;;;;;;;4865364;29;20021;-89
2021/09/04 21:08:13;;;;;;;12.00;7.07;;;;;;;;;;4866585;29;20509;-90
2021/09/04 21:10:39;;;;;;;9.18;5.53;;;;;;;;;;4867270;29;20372;-91
2021/09/04 21:13:05;;;;;;;11.32;6.03;;;;;;;;;;4868419;29;20048;-90
2021/09/04 21:15:31;;;;;;;12.15;7.03;;;;;;;;;;4873392;29;20057;-89
2021/09/04 21:17:58;;;;;;;10.32;6.43;;;;;;;;;;4876224;29;20041;-91
2021/09/04 21:20:24;;;;;;;11.55;6.32;;;;;;;;;;4867673;29;20021;-87
2021/09/04 21:22:50;;;;;;;9.82;5.38;;;;;;;;;;4866438;29;20109;-90
2021/09/04 21:25:17;;;;;;;10.48;5.10;;;;;;;;;;4865937;29;20029;-87
2021/09/04 21:27:43;;;;;;;13.45;5.63;;;;;;;;;;4867635;29;20065;-90
2021/09/04 21:30:09;;;;;;;10.25;5.93;;;;;;;;;;4879957;29;20029;-89
2021/09/04 21:32:35;;;;;;;11.77;5.95;;;;;;;;;;4882169;29;20193;-88
2021/09/04 21:35:01;;;;;;;9.30;5.25;;;;;;;;;;4867519;29;20494;-91
2021/09/04 21:37:28;;;;;;;9.95;5.75;;;;;;;;;;4866063;29;20033;-90
2021/09/04 21:39:54;;;;;;;12.68;6.20;;;;;;;;;;4884794;29;20056;-90
2021/09/04 21:42:20;;;;;;;11.57;6.00;;;;;;;;;;4902814;29;20442;-90
2021/09/04 21:44:46;;;;;;;14.52;6.13;;;;;;;;;;4902280;29;20088;-87
2021/09/04 21:47:12;;;;;;;9.38;5.70;;;;;;;;;;4902152;29;20032;-89
2021/09/04 21:49:39;;;;;;;11.90;6.40;;;;;;;;;;4902608;29;20024;-87
2021/09/04 21:52:05;;;;;;;10.68;5.82;;;;;;;;;;4901515;29;20064;-91
2021/09/04 21:54:31;;;;;;;9.77;6.10;;;;;;;;;;4901655;29;20024;-91
2021/09/04 21:56:57;;;;;;;12.77;5.95;;;;;;;;;;4904624;29;20544;-89
2021/09/04 21:59:23;;;;;;;10.10;5.72;;;;;;;;;;4905080;29;20083;-89
2021/09/04 22:01:50;;;;;;;10.98;6.10;;;;;;;;;;4905814;29;20116;-88
2021/09/04 22:04:16;;;;;;;10.80;5.35;;;;;;;;;;4906936;29;20035;-88
2021/09/04 22:06:42;;;;;;;10.93;5.78;;;;;;;;;;4905621;29;20024;-89
2021/09/04 22:09:08;;;;;;;14.10;6.35;;;;;;;;;;4905433;29;20028;-87
2021/09/04 22:11:34;;;;;;;12.40;6.28;;;;;;;;;;4906815;29;20024;-88
2021/09/04 22:14:00;;;;;;;12.95;5.32;;;;;;;;;;4906428;29;20040;-89
2021/09/04 22:16:29;;;;;;;9.45;5.88;;;;;;;;;;4906309;29;20447;-89
2021/09/04 22:18:55;;;;;;;10.70;6.30;;;;;;;;;;4907274;29;20521;-89
2021/09/04 22:21:21;;;;;;;13.63;6.90;;;;;;;;;;4905874;29;20024;-89
2021/09/04 22:23:49;;;;;;;14.40;6.25;;;;;;;;;;4905358;29;20099;-89
2021/09/04 22:26:15;;;;;;;13.20;6.90;;;;;;;;;;4905177;29;20096;-90
2021/09/04 22:28:41;;;;;;;12.68;6.60;;;;;;;;;;4906540;29;20110;-87
2021/09/04 22:31:08;;;;;;;13.48;6.95;;;;;;;;;;4906219;29;20107;-89
2021/09/04 22:33:35;;;;;;;11.90;5.88;;;;;;;;;;4912959;29;20400;-90
2021/09/04 22:36:02;;;;;;;15.35;6.95;;;;;;;;;;4906772;29;20118;-86
2021/09/04 22:38:28;;;;;;;14.07;7.60;;;;;;;;;;4906271;29;20047;-89
2021/09/04 22:40:54;;;;;;;13.90;7.10;;;;;;;;;;4905007;29;20492;-86
2021/09/04 22:43:22;;;;;;;15.13;6.45;;;;;;;;;;4905326;29;20503;-87
2021/09/04 22:45:49;;;;;;;13.30;6.78;;;;;;;;;;4910782;29;20034;-91
2021/09/04 22:48:15;;;;;;;11.85;6.50;;;;;;;;;;4909241;29;20501;-91
2021/09/04 22:50:41;;;;;;;13.25;6.25;;;;;;;;;;4905198;29;20062;-90
2021/09/04 22:53:08;;;;;;;12.60;5.85;;;;;;;;;;4905474;29;20036;-90
2021/09/04 22:55:34;;;;;;;15.40;6.28;;;;;;;;;;4904799;29;20080;-89
2021/09/04 22:58:02;;;;;;;13.90;5.93;;;;;;;;;;4904395;29;20055;-87
2021/09/04 23:00:28;;;;;;;13.98;6.88;;;;;;;;;;4904819;29;20055;-90
2021/09/04 23:02:56;;;;;;;14.10;6.57;;;;;;;;;;4904706;29;20032;-91
2021/09/04 23:05:22;;;;;;;14.30;6.97;;;;;;;;;;4904431;29;20032;-87
2021/09/04 23:07:48;;;;;;;11.70;6.18;;;;;;;;;;4906272;29;20123;-87
2021/09/04 23:10:14;;;;;;;11.20;5.70;;;;;;;;;;4905355;29;20025;-89
2021/09/04 23:12:41;;;;;;;15.05;6.90;;;;;;;;;;4904886;29;20063;-89
2021/09/04 23:15:08;;;;;;;10.63;6.03;;;;;;;;;;4906164;29;20036;-90
2021/09/04 23:17:35;;;;;;;11.63;5.90;;;;;;;;;;4905131;29;20557;-86
2021/09/04 23:20:01;;;;;;;11.77;6.05;;;;;;;;;;4904253;29;20528;-90
2021/09/04 23:22:27;;;;;;;9.95;6.45;;;;;;;;;;4906976;29;20020;-89
2021/09/04 23:24:53;;;;;;;9.57;5.18;;;;;;;;;;4904483;29;20068;-87
2021/09/04 23:27:20;;;;;;;10.48;5.78;;;;;;;;;;4904828;29;20024;-87
2021/09/04 23:29:47;;;;;;;11.15;5.60;;;;;;;;;;4903182;29;20047;-87
2021/09/04 23:32:13;;;;;;;10.95;5.50;;;;;;;;;;4903023;29;20122;-88
2021/09/04 23:34:48;;;;;;;9.50;4.85;;;;;;;;;;4904353;29;20444;-87
2021/09/04 23:37:14;;;;;;;11.02;6.05;;;;;;;;;;4903467;29;20083;-88
2021/09/04 23:39:40;;;;;;;9.07;4.95;;;;;;;;;;4903657;29;20039;-90
2021/09/04 23:42:06;;;;;;;13.65;6.47;;;;;;;;;;4903895;29;20028;-90
2021/09/04 23:44:32;;;;;;;15.82;6.85;;;;;;;;;;4906911;29;20039;-91
2021/09/04 23:46:59;;;;;;;12.57;6.25;;;;;;;;;;4903537;29;20119;-90
2021/09/04 23:49:25;;;;;;;10.57;6.30;;;;;;;;;;4904352;29;20397;-86
2021/09/04 23:51:51;;;;;;;18.25;6.15;;;;;;;;;;4904665;29;20031;-90
2021/09/04 23:54:17;;;;;;;12.23;6.57;;;;;;;;;;4903048;29;20056;-90
2021/09/04 23:56:44;;;;;;;11.02;6.20;;;;;;;;;;4902777;29;20031;-89
2021/09/04 23:59:10;;;;;;;13.93;6.03;;;;;;;;;;4904102;29;20063;-89
